Time;durP1;ratioP1;P1;durP2;ratioP2;P2;SDS_P1;SDS_P2;PMS_P1;PMS_P2;Temp;Humidity;BMP_temperature;BMP_pressure;BME280_temperature;BME280_humidity;BME280_pressure;Samples;Min_cycle;Max_cycle;Signal;HPM_P1;HPM_P2
2022/05/13 00:00:42;;;;;;;5.72;3.10;;;12.30;99.90;;;;;;4962412;28;20042;-86
2022/05/13 00:03:08;;;;;;;10.55;3.70;;;12.20;99.90;;;;;;4971659;28;20100;-87
2022/05/13 00:05:33;;;;;;;12.07;3.83;;;12.30;99.90;;;;;;4993058;28;20521;-86
2022/05/13 00:07:59;;;;;;;9.68;3.38;;;12.20;99.90;;;;;;4976767;28;20047;-87
2022/05/13 00:10:25;;;;;;;8.40;3.28;;;12.20;99.90;;;;;;4994715;28;20030;-86
2022/05/13 00:12:51;;;;;;;8.60;3.70;;;12.60;99.90;;;;;;4989627;28;20053;-87
2022/05/13 00:15:21;;;;;;;8.20;3.60;;;12.20;99.90;;;;;;4979148;28;20047;-87
2022/05/13 00:17:47;;;;;;;9.20;3.40;;;12.70;99.90;;;;;;4971431;28;20046;-87
2022/05/13 00:20:14;;;;;;;7.80;3.42;;;12.30;99.90;;;;;;4962750;28;20052;-87
2022/05/13 00:22:53;;;;;;;10.00;3.58;;;12.20;99.90;;;;;;4978463;28;20042;-87
2022/05/13 00:25:22;;;;;;;9.70;3.42;;;12.40;99.90;;;;;;4980070;28;20051;-86
2022/05/13 00:27:48;;;;;;;9.35;4.22;;;12.20;99.90;;;;;;4978090;28;20047;-86
2022/05/13 00:30:14;;;;;;;15.05;4.07;;;12.20;99.90;;;;;;4962332;28;20441;-86
2022/05/13 00:32:40;;;;;;;12.85;3.72;;;12.30;99.90;;;;;;4977997;28;20096;-86
2022/05/13 00:35:07;;;;;;;12.77;4.03;;;12.60;99.90;;;;;;4986524;28;20042;-87
2022/05/13 00:37:33;;;;;;;14.25;3.85;;;12.40;99.90;;;;;;4994082;28;20046;-87
2022/05/13 00:39:59;;;;;;;12.85;4.78;;;12.80;99.90;;;;;;4969936;28;20469;-86
2022/05/13 00:42:25;;;;;;;13.38;4.55;;;12.50;99.90;;;;;;4975417;28;20046;-86
2022/05/13 00:44:51;;;;;;;14.35;4.18;;;12.80;99.90;;;;;;4994378;28;20089;-86
2022/05/13 00:47:18;;;;;;;14.27;4.30;;;12.80;99.90;;;;;;4967449;28;20069;-86
2022/05/13 00:49:44;;;;;;;14.20;4.35;;;12.90;99.90;;;;;;4963814;28;20045;-86
2022/05/13 00:52:11;;;;;;;14.30;4.18;;;12.60;99.90;;;;;;4978183;28;20042;-87
2022/05/13 00:54:39;;;;;;;19.55;4.68;;;12.90;99.90;;;;;;4961863;28;20122;-87
2022/05/13 00:57:05;;;;;;;11.73;3.70;;;12.80;99.90;;;;;;4979912;28;20118;-86
2022/05/13 00:59:33;;;;;;;16.98;4.38;;;12.70;99.90;;;;;;4977616;28;20061;-87
2022/05/13 01:01:59;;;;;;;14.07;3.88;;;12.70;99.90;;;;;;4977162;28;20062;-85
2022/05/13 01:04:28;;;;;;;15.02;3.63;;;12.80;99.90;;;;;;4977737;28;20462;-87
2022/05/13 01:06:57;;;;;;;13.18;3.95;;;13.00;99.90;;;;;;4977382;28;20097;-87
2022/05/13 01:09:26;;;;;;;14.00;3.80;;;12.70;99.90;;;;;;4961226;28;20081;-87
2022/05/13 01:11:57;;;;;;;15.15;4.00;;;12.80;99.90;;;;;;4963255;28;20082;-86
2022/05/13 01:14:31;;;;;;;12.75;3.65;;;13.10;99.90;;;;;;4982774;28;20053;-86
2022/05/13 01:20:07;;;;;;;15.55;4.30;;;12.80;99.90;;;;;;4977172;28;20042;-86
2022/05/13 01:22:49;;;;;;;18.30;4.28;;;12.80;99.90;;;;;;4977449;28;20533;-87
2022/05/13 01:25:18;;;;;;;16.73;4.30;;;12.80;99.90;;;;;;4977503;28;20398;-86
2022/05/13 01:27:45;;;;;;;15.20;4.25;;;12.80;99.90;;;;;;4961090;28;20041;-87
2022/05/13 01:30:18;;;;;;;15.77;4.38;;;13.10;99.90;;;;;;4977230;28;20057;-86
2022/05/13 01:32:43;;;;;;;17.25;3.90;;;12.80;99.90;;;;;;4976887;28;20050;-87
2022/05/13 01:35:10;;;;;;;18.05;4.25;;;13.10;99.90;;;;;;4976994;28;20050;-86
2022/05/13 01:37:35;;;;;;;17.15;3.85;;;12.80;99.90;;;;;;4977038;28;20076;-86
2022/05/13 01:40:03;;;;;;;20.55;5.07;;;12.80;99.90;;;;;;4976875;28;20050;-86
2022/05/13 01:42:31;;;;;;;20.63;5.50;;;12.80;99.90;;;;;;4976931;28;20058;-86
2022/05/13 01:44:57;;;;;;;16.38;4.05;;;13.00;99.90;;;;;;4978429;28;20389;-86
2022/05/13 01:47:24;;;;;;;14.18;4.00;;;12.90;99.90;;;;;;4998284;28;20042;-86
2022/05/13 01:49:50;;;;;;;16.63;4.72;;;12.80;99.90;;;;;;4980895;28;20049;-86
2022/05/13 01:52:16;;;;;;;17.77;4.50;;;13.20;99.90;;;;;;4980876;28;20050;-87
2022/05/13 01:54:42;;;;;;;20.63;4.40;;;12.80;99.90;;;;;;4981116;28;20050;-86
2022/05/13 01:57:07;;;;;;;14.70;3.78;;;12.90;99.90;;;;;;4964854;28;20390;-86
2022/05/13 01:59:33;;;;;;;16.70;4.35;;;12.90;99.90;;;;;;4980898;28;20050;-86
2022/05/13 02:01:59;;;;;;;19.17;4.60;;;12.80;99.90;;;;;;4980653;28;20050;-87
2022/05/13 02:04:24;;;;;;;15.52;4.07;;;12.80;99.90;;;;;;4980551;28;20046;-86
2022/05/13 02:06:50;;;;;;;16.15;4.38;;;13.10;99.90;;;;;;4964603;28;20441;-86
2022/05/13 02:09:16;;;;;;;16.02;4.00;;;12.80;99.90;;;;;;4980733;28;20042;-86
2022/05/13 02:11:41;;;;;;;13.13;3.80;;;12.80;99.90;;;;;;4964579;28;20093;-86
2022/05/13 02:14:08;;;;;;;13.27;4.00;;;12.80;99.90;;;;;;4980360;28;20097;-86
2022/05/13 02:16:34;;;;;;;22.02;4.93;;;13.10;99.90;;;;;;4964398;28;20042;-86
2022/05/13 02:19:00;;;;;;;14.13;3.53;;;13.10;99.90;;;;;;4980299;28;20391;-87
2022/05/13 02:21:25;;;;;;;16.42;4.00;;;12.90;99.90;;;;;;4980335;28;20049;-86
2022/05/13 02:23:52;;;;;;;16.15;3.80;;;12.80;99.90;;;;;;4964318;28;20050;-86
2022/05/13 02:26:17;;;;;;;17.02;4.20;;;13.20;99.90;;;;;;4980473;28;20386;-87
2022/05/13 02:28:44;;;;;;;15.68;4.63;;;12.70;99.90;;;;;;4980159;28;20055;-86
2022/05/13 02:31:11;;;;;;;16.63;3.80;;;12.70;99.90;;;;;;4980126;28;20050;-86
2022/05/13 02:33:37;;;;;;;12.43;3.78;;;12.90;99.90;;;;;;4979898;28;20050;-87
2022/05/13 02:36:04;;;;;;;15.30;4.00;;;12.70;99.90;;;;;;4980372;28;20497;-86
2022/05/13 02:38:31;;;;;;;15.95;3.85;;;12.70;99.90;;;;;;4964261;28;20483;-86
2022/05/13 02:41:11;;;;;;;17.77;4.00;;;12.70;99.90;;;;;;4980178;28;20498;-86
2022/05/13 02:43:49;;;;;;;13.82;3.85;;;13.00;99.90;;;;;;4980006;28;20046;-86
2022/05/13 02:46:20;;;;;;;19.98;4.45;;;12.90;99.90;;;;;;4979949;28;20125;-86
2022/05/13 02:48:50;;;;;;;19.08;3.90;;;12.70;99.90;;;;;;4979979;28;20125;-86
2022/05/13 02:51:16;;;;;;;17.88;4.50;;;12.80;99.90;;;;;;4979977;28;20563;-87
2022/05/13 02:53:42;;;;;;;18.55;4.10;;;12.70;99.90;;;;;;4979575;28;20173;-86
2022/05/13 02:56:08;;;;;;;16.30;4.00;;;12.70;99.90;;;;;;4979127;28;20118;-86
2022/05/13 02:58:38;;;;;;;18.10;5.18;;;13.10;99.90;;;;;;4979702;28;20050;-86
2022/05/13 03:01:06;;;;;;;17.27;4.40;;;12.70;99.90;;;;;;4964237;28;20487;-87
2022/05/13 03:03:32;;;;;;;16.98;4.10;;;12.70;99.90;;;;;;4963085;28;20109;-86
2022/05/13 03:05:59;;;;;;;21.88;3.90;;;12.70;99.90;;;;;;4980029;28;20133;-86
2022/05/13 03:08:25;;;;;;;13.65;3.75;;;13.10;99.90;;;;;;4963337;28;20046;-86
2022/05/13 03:10:51;;;;;;;12.40;4.22;;;13.00;99.90;;;;;;4979622;28;20048;-86
2022/05/13 03:13:19;;;;;;;14.57;3.38;;;12.90;99.90;;;;;;4979612;28;20050;-86
2022/05/13 03:15:45;;;;;;;15.57;3.60;;;12.80;99.90;;;;;;4979793;28;20049;-86
2022/05/13 03:18:11;;;;;;;10.57;3.10;;;12.80;99.90;;;;;;4963516;28;20042;-87
2022/05/13 03:20:37;;;;;;;14.32;3.97;;;12.90;99.90;;;;;;4963173;28;20142;-86
2022/05/13 03:23:03;;;;;;;12.18;2.92;;;12.80;99.90;;;;;;4979056;28;20038;-86
2022/05/13 03:25:29;;;;;;;12.35;3.08;;;12.80;99.90;;;;;;4963228;28;20121;-86
2022/05/13 03:27:56;;;;;;;13.15;2.90;;;12.90;99.90;;;;;;4962891;28;20513;-86
2022/05/13 03:30:24;;;;;;;9.80;3.22;;;12.90;99.90;;;;;;4982987;28;20039;-86
2022/05/13 03:32:52;;;;;;;13.02;3.10;;;12.90;99.90;;;;;;4981568;28;20426;-86
2022/05/13 03:35:20;;;;;;;11.70;3.45;;;12.90;99.90;;;;;;4978940;28;20083;-87
2022/05/13 03:37:46;;;;;;;10.00;3.40;;;13.00;99.90;;;;;;4962968;28;20047;-87
2022/05/13 03:40:14;;;;;;;11.00;3.08;;;12.90;99.90;;;;;;4980058;28;20060;-86
2022/05/13 03:42:40;;;;;;;11.70;2.58;;;13.00;99.90;;;;;;4964076;28;20081;-87
2022/05/13 03:45:07;;;;;;;10.50;2.80;;;13.30;99.90;;;;;;4979846;28;20085;-87
2022/05/13 03:47:33;;;;;;;10.95;2.78;;;12.90;99.90;;;;;;4979634;28;20045;-86
2022/05/13 03:49:59;;;;;;;12.52;3.08;;;12.90;99.90;;;;;;4962581;28;20050;-86
2022/05/13 03:52:25;;;;;;;12.85;3.05;;;12.90;99.90;;;;;;4978680;28;20129;-87
2022/05/13 03:54:51;;;;;;;10.60;2.55;;;12.80;99.90;;;;;;4978692;28;20039;-86
2022/05/13 03:57:16;;;;;;;10.05;2.83;;;12.80;99.90;;;;;;4962889;28;20065;-86
2022/05/13 03:59:42;;;;;;;14.18;2.70;;;13.00;99.90;;;;;;4978754;28;20104;-86
2022/05/13 04:02:08;;;;;;;8.95;2.60;;;12.90;99.90;;;;;;4978495;28;20080;-86
2022/05/13 04:10:06;;;;;;;14.05;2.90;;;12.70;99.90;;;;;;4939209;29;20058;-87
2022/05/13 04:18:01;;;;;;;8.43;2.70;;;12.70;99.90;;;;;;4938805;29;20467;-86
2022/05/13 04:20:26;;;;;;;8.90;2.55;;;12.70;99.90;;;;;;4938726;29;20166;-87
2022/05/13 04:22:52;;;;;;;10.50;2.47;;;13.30;99.90;;;;;;4938793;29;20603;-86
2022/05/13 04:25:18;;;;;;;10.65;2.58;;;13.10;99.90;;;;;;4938973;29;20506;-86
2022/05/13 04:27:43;;;;;;;7.28;2.80;;;12.70;99.90;;;;;;4922715;29;20047;-86
2022/05/13 04:30:10;;;;;;;8.50;2.40;;;13.30;99.90;;;;;;4940210;29;20466;-86
2022/05/13 04:32:35;;;;;;;9.25;2.53;;;12.70;99.90;;;;;;4938309;29;20059;-86
2022/05/13 04:35:01;;;;;;;7.50;2.72;;;12.80;99.90;;;;;;4938544;29;20499;-86
2022/05/13 04:37:27;;;;;;;8.18;2.00;;;12.70;99.90;;;;;;4922917;29;20146;-86
2022/05/13 04:39:53;;;;;;;10.55;2.28;;;12.90;99.90;;;;;;4938507;29;20061;-86
2022/05/13 04:45:05;;;;;;;10.48;2.78;;;13.00;99.90;;;;;;4969066;28;20052;-86
2022/05/13 04:50:16;;;;;;;9.20;2.10;;;12.90;99.90;;;;;;4977760;28;20081;-86
2022/05/13 04:52:41;;;;;;;9.07;2.30;;;12.70;99.90;;;;;;4977705;28;20133;-86
2022/05/13 04:55:08;;;;;;;8.77;2.13;;;12.70;99.90;;;;;;4979573;28;20089;-86
2022/05/13 04:57:34;;;;;;;6.70;1.90;;;12.60;99.90;;;;;;4978168;28;20050;-87
2022/05/13 04:59:59;;;;;;;6.47;2.25;;;12.70;99.90;;;;;;4978538;28;20042;-87
2022/05/13 05:02:25;;;;;;;8.73;2.00;;;12.70;99.90;;;;;;4977395;28;20544;-87
2022/05/13 05:04:50;;;;;;;6.05;2.13;;;12.70;99.90;;;;;;4977704;28;20042;-87
2022/05/13 05:07:16;;;;;;;5.72;1.92;;;12.90;99.90;;;;;;4977535;28;20556;-87
2022/05/13 05:09:42;;;;;;;8.38;1.85;;;12.90;99.90;;;;;;4961315;28;20109;-87
2022/05/13 05:12:09;;;;;;;7.95;1.67;;;13.10;99.90;;;;;;4977285;28;20042;-87
2022/05/13 05:14:35;;;;;;;6.63;2.00;;;12.90;99.90;;;;;;4977101;28;20432;-87
2022/05/13 05:17:01;;;;;;;5.38;1.80;;;12.90;99.90;;;;;;4961034;28;20054;-87
2022/05/13 05:19:27;;;;;;;8.98;2.95;;;13.00;99.90;;;;;;4976708;28;20058;-86
2022/05/13 05:21:53;;;;;;;7.13;2.03;;;13.00;99.90;;;;;;4977482;28;20390;-87
2022/05/13 05:24:18;;;;;;;9.73;1.95;;;13.10;99.90;;;;;;4977130;28;20057;-86
2022/05/13 05:26:44;;;;;;;8.90;2.10;;;13.30;99.90;;;;;;4976918;28;20042;-87
2022/05/13 05:29:10;;;;;;;5.93;1.70;;;13.40;99.90;;;;;;4977025;28;20046;-87
2022/05/13 05:31:36;;;;;;;4.80;1.60;;;13.20;99.90;;;;;;4960907;28;20133;-86
2022/05/13 05:34:02;;;;;;;6.80;1.80;;;13.10;99.90;;;;;;4976663;28;20125;-86
2022/05/13 05:36:27;;;;;;;6.50;1.90;;;13.20;99.90;;;;;;4976925;28;20038;-87
2022/05/13 05:38:53;;;;;;;5.03;1.85;;;13.30;99.90;;;;;;4976932;28;20128;-87
2022/05/13 05:41:19;;;;;;;8.30;1.77;;;13.40;99.90;;;;;;4977065;28;20078;-87
2022/05/13 05:43:45;;;;;;;7.13;1.90;;;13.50;99.90;;;;;;4977656;28;20494;-86
2022/05/13 05:46:11;;;;;;;6.40;1.75;;;13.40;99.90;;;;;;4978590;28;20057;-87
2022/05/13 05:48:36;;;;;;;9.02;2.63;;;13.40;99.90;;;;;;4977555;28;20101;-87
2022/05/13 05:51:02;;;;;;;6.18;1.70;;;13.70;99.90;;;;;;4976824;28;20509;-87
2022/05/13 05:59:00;;;;;;;5.82;1.67;;;13.50;99.90;;;;;;4976521;28;20089;-87
2022/05/13 06:01:27;;;;;;;6.22;1.80;;;13.50;99.90;;;;;;4960668;28;20042;-86
2022/05/13 06:03:53;;;;;;;7.20;1.70;;;13.60;99.90;;;;;;4976372;28;20055;-87
2022/05/13 06:06:19;;;;;;;7.53;1.73;;;13.70;99.90;;;;;;4976632;28;20120;-86
2022/05/13 06:08:45;;;;;;;6.13;1.65;;;13.50;99.90;;;;;;4976573;28;20047;-86
2022/05/13 06:11:11;;;;;;;4.32;1.80;;;13.60;99.90;;;;;;4976598;28;20046;-87
2022/05/13 06:13:37;;;;;;;5.18;1.70;;;13.60;99.90;;;;;;4976570;28;20050;-87
2022/05/13 06:16:04;;;;;;;7.95;2.00;;;13.70;99.90;;;;;;4976634;28;20046;-87
2022/05/13 06:18:30;;;;;;;10.80;2.10;;;13.70;99.90;;;;;;4960624;28;20085;-87
2022/05/13 06:20:55;;;;;;;6.80;1.83;;;13.70;99.90;;;;;;4976373;28;20479;-87
2022/05/13 06:23:21;;;;;;;8.70;1.55;;;13.80;99.90;;;;;;4960884;28;20054;-87
2022/05/13 06:25:47;;;;;;;4.85;1.70;;;14.20;99.90;;;;;;4978406;28;20043;-86
2022/05/13 06:28:12;;;;;;;7.65;1.67;;;13.80;99.90;;;;;;4960367;28;20502;-86
2022/05/13 06:30:38;;;;;;;8.18;1.65;;;13.90;99.90;;;;;;4960628;28;20049;-87
2022/05/13 06:33:05;;;;;;;7.28;1.70;;;13.90;99.90;;;;;;4980417;28;20134;-87
2022/05/13 06:35:33;;;;;;;5.25;1.60;;;13.90;99.90;;;;;;4980476;28;20052;-87
2022/05/13 06:37:58;;;;;;;5.60;1.50;;;14.10;99.90;;;;;;4979766;28;20093;-88
2022/05/13 06:40:25;;;;;;;10.55;1.60;;;13.90;99.90;;;;;;4980038;28;20090;-87
2022/05/13 06:42:54;;;;;;;4.82;1.48;;;13.90;99.90;;;;;;4963906;28;20057;-87
2022/05/13 06:45:20;;;;;;;4.82;1.40;;;14.40;99.90;;;;;;4979888;28;20137;-87
2022/05/13 06:47:46;;;;;;;7.10;1.50;;;14.00;99.90;;;;;;4964233;28;20043;-88
2022/05/13 06:50:16;;;;;;;5.57;1.38;;;14.20;99.90;;;;;;4979918;28;20056;-88
2022/05/13 06:52:43;;;;;;;4.97;1.20;;;14.30;99.90;;;;;;4979716;28;20042;-86
2022/05/13 06:55:11;;;;;;;8.15;1.40;;;14.60;99.90;;;;;;4981442;28;20078;-87
2022/05/13 06:57:37;;;;;;;6.05;1.50;;;14.50;99.90;;;;;;4963591;28;20038;-87
2022/05/13 07:00:05;;;;;;;5.90;1.65;;;14.60;99.90;;;;;;4979668;28;20556;-87
2022/05/13 07:02:31;;;;;;;7.45;1.60;;;14.60;99.90;;;;;;4980202;28;20498;-87
2022/05/13 07:04:57;;;;;;;5.70;1.50;;;14.60;99.90;;;;;;4979524;28;20058;-87
2022/05/13 07:07:22;;;;;;;4.70;1.25;;;14.80;99.90;;;;;;4979854;28;20050;-87
2022/05/13 07:09:48;;;;;;;3.42;1.10;;;14.60;99.90;;;;;;4963067;28;20505;-87
2022/05/13 07:12:14;;;;;;;6.53;1.48;;;14.70;99.90;;;;;;4963534;28;20050;-87
2022/05/13 07:14:39;;;;;;;7.70;1.88;;;14.70;99.90;;;;;;4963805;28;20046;-87
2022/05/13 07:17:06;;;;;;;5.53;1.40;;;14.90;99.90;;;;;;4980085;28;20038;-87
2022/05/13 07:19:32;;;;;;;6.57;1.85;;;14.80;99.90;;;;;;4996644;28;20181;-87
2022/05/13 07:22:00;;;;;;;4.70;1.38;;;14.80;99.90;;;;;;4963252;28;20054;-88
2022/05/13 07:24:26;;;;;;;7.55;1.92;;;15.00;99.90;;;;;;4962998;28;20486;-87
2022/05/13 07:26:52;;;;;;;4.65;1.30;;;15.20;99.90;;;;;;4979185;28;20157;-87
2022/05/13 07:29:18;;;;;;;5.95;1.50;;;15.40;99.90;;;;;;4979374;28;20133;-86
2022/05/13 07:31:43;;;;;;;8.13;1.95;;;15.50;99.90;;;;;;4982073;28;20050;-87
2022/05/13 07:34:09;;;;;;;6.20;1.35;;;15.40;99.90;;;;;;4969735;28;20465;-87
2022/05/13 07:36:35;;;;;;;5.13;1.27;;;15.30;99.90;;;;;;4990103;28;20049;-87
2022/05/13 07:41:47;;;;;;;4.20;1.60;;;15.40;99.90;;;;;;4983060;28;20133;-87
2022/05/13 07:44:13;;;;;;;3.88;1.40;;;15.50;99.90;;;;;;4979951;28;20443;-87
2022/05/13 07:46:38;;;;;;;5.47;1.40;;;15.50;99.90;;;;;;4979812;28;20398;-87
2022/05/13 07:49:08;;;;;;;6.40;1.50;;;15.60;99.90;;;;;;4978994;28;20051;-88
2022/05/13 07:51:33;;;;;;;7.57;1.60;;;15.50;99.90;;;;;;4979019;28;20046;-87
2022/05/13 07:53:59;;;;;;;6.10;1.63;;;15.70;99.90;;;;;;4978814;28;20049;-86
2022/05/13 07:56:25;;;;;;;5.40;1.90;;;15.80;99.90;;;;;;4978802;28;20054;-87
2022/05/13 07:58:51;;;;;;;4.20;1.40;;;16.10;99.90;;;;;;4965261;28;20047;-87
2022/05/13 08:01:17;;;;;;;5.57;1.70;;;15.80;99.90;;;;;;4966387;28;20052;-87
2022/05/13 08:03:44;;;;;;;6.68;1.88;;;16.00;99.90;;;;;;4978947;28;20060;-87
2022/05/13 08:06:13;;;;;;;6.30;1.70;;;15.80;99.90;;;;;;4978657;28;20391;-88
2022/05/13 08:08:45;;;;;;;3.58;1.20;;;15.70;99.90;;;;;;4962339;28;20096;-88
2022/05/13 08:11:14;;;;;;;5.18;1.30;;;15.70;99.90;;;;;;4978260;28;20046;-87
2022/05/13 08:13:40;;;;;;;4.78;1.42;;;15.80;99.90;;;;;;4978363;28;20050;-87
2022/05/13 08:16:15;;;;;;;6.38;1.50;;;16.00;99.90;;;;;;4978644;28;20363;-87
2022/05/13 08:18:42;;;;;;;7.00;1.50;;;16.30;99.90;;;;;;4962756;28;20077;-88
2022/05/13 08:21:08;;;;;;;5.15;1.55;;;16.40;99.90;;;;;;4977968;28;20125;-88
2022/05/13 08:23:34;;;;;;;4.38;1.40;;;16.50;99.90;;;;;;4978211;28;20050;-88
2022/05/13 08:26:00;;;;;;;5.18;1.60;;;16.60;99.90;;;;;;4978246;28;20101;-86
2022/05/13 08:28:26;;;;;;;5.93;1.35;;;16.60;99.90;;;;;;4977948;28;20058;-88
2022/05/13 08:30:52;;;;;;;5.72;1.58;;;16.80;99.90;;;;;;4977879;28;20085;-87
2022/05/13 08:33:18;;;;;;;6.55;1.75;;;16.80;99.90;;;;;;4961649;28;20054;-87
2022/05/13 08:35:46;;;;;;;4.80;1.52;;;16.80;99.90;;;;;;4977596;28;20050;-87
2022/05/13 08:38:13;;;;;;;8.40;1.70;;;16.90;99.90;;;;;;4977742;28;20061;-86
2022/05/13 08:41:09;;;;;;;7.20;1.40;;;17.00;99.90;;;;;;4961478;28;20042;-88
2022/05/13 08:43:38;;;;;;;3.70;1.20;;;17.20;99.90;;;;;;4961925;28;20038;-87
2022/05/13 08:46:16;;;;;;;4.32;1.33;;;17.30;99.90;;;;;;4978210;28;20188;-88
2022/05/13 08:49:18;;;;;;;4.47;1.35;;;17.40;99.90;;;;;;4977643;28;20398;-87
2022/05/13 08:51:54;;;;;;;5.93;1.40;;;17.40;99.90;;;;;;4977580;28;20056;-87
2022/05/13 08:54:23;;;;;;;8.07;1.80;;;17.60;99.90;;;;;;4977063;28;20453;-88
2022/05/13 08:56:53;;;;;;;5.57;1.75;;;17.40;99.90;;;;;;4977363;28;20561;-87
2022/05/13 08:59:31;;;;;;;5.18;1.35;;;17.40;99.90;;;;;;4977374;28;20054;-88
2022/05/13 09:02:12;;;;;;;3.45;1.25;;;17.30;99.90;;;;;;4977483;28;20360;-88
2022/05/13 09:04:43;;;;;;;3.42;0.93;;;17.00;99.90;;;;;;4977283;28;20081;-88
2022/05/13 09:07:18;;;;;;;6.78;1.55;;;17.00;99.90;;;;;;4977204;28;20490;-87
2022/05/13 09:09:50;;;;;;;6.07;1.52;;;17.00;99.90;;;;;;4977384;28;20046;-88
2022/05/13 09:12:17;;;;;;;5.13;1.40;;;16.90;99.90;;;;;;4977488;28;20450;-86
2022/05/13 09:14:48;;;;;;;6.88;1.40;;;16.70;99.90;;;;;;4977303;28;20057;-88
2022/05/13 09:17:35;;;;;;;3.65;1.15;;;16.70;99.90;;;;;;4961068;28;20044;-86
2022/05/13 09:20:03;;;;;;;5.40;1.30;;;16.50;99.90;;;;;;4961257;28;20181;-87
2022/05/13 09:22:49;;;;;;;4.85;1.23;;;16.30;99.90;;;;;;4977135;28;20490;-87
2022/05/13 09:25:17;;;;;;;8.98;1.70;;;16.20;99.90;;;;;;4977125;28;20092;-88
2022/05/13 09:27:49;;;;;;;6.45;2.17;;;16.60;99.90;;;;;;4977001;28;20039;-87
2022/05/13 09:30:20;;;;;;;4.95;1.67;;;16.20;99.90;;;;;;4960773;28;20474;-87
2022/05/13 09:32:46;;;;;;;5.90;1.85;;;16.20;99.90;;;;;;4994313;28;20038;-87
2022/05/13 09:35:29;;;;;;;7.00;1.70;;;16.10;99.90;;;;;;4977178;28;20057;-87
2022/05/13 09:37:55;;;;;;;8.00;1.90;;;16.10;99.90;;;;;;4962178;28;20073;-87
2022/05/13 09:40:27;;;;;;;6.53;1.50;;;16.00;99.90;;;;;;4977674;28;20053;-87
2022/05/13 09:42:55;;;;;;;5.72;2.05;;;16.30;99.90;;;;;;4977712;28;20039;-87
2022/05/13 09:45:26;;;;;;;8.20;1.63;;;16.60;99.90;;;;;;4994701;28;20046;-88
2022/05/13 09:47:59;;;;;;;6.50;2.20;;;17.00;99.90;;;;;;4961546;28;20410;-86
2022/05/13 09:50:31;;;;;;;9.85;1.80;;;17.00;99.90;;;;;;4977073;28;20475;-88
2022/05/13 09:53:12;;;;;;;5.30;1.63;;;16.80;99.90;;;;;;4976601;28;20445;-88
2022/05/13 09:55:41;;;;;;;5.50;1.40;;;16.60;99.90;;;;;;4976688;28;20047;-87
2022/05/13 09:58:16;;;;;;;7.22;1.58;;;16.60;99.90;;;;;;4960573;28;20043;-88
2022/05/13 10:00:43;;;;;;;5.47;1.80;;;16.60;99.90;;;;;;4960609;28;20050;-87
2022/05/13 10:03:29;;;;;;;5.72;1.83;;;16.70;99.90;;;;;;4960193;28;20058;-87
2022/05/13 10:06:11;;;;;;;5.65;1.70;;;16.70;99.90;;;;;;4960434;28;20108;-87
2022/05/13 10:13:57;;;;;;;5.65;2.05;;;16.60;99.90;;;;;;4964627;28;20450;-87
2022/05/13 10:14:30;;;;;;;6.22;1.75;;;16.30;99.90;;;;;;4981977;28;20053;-87
2022/05/13 10:17:17;;;;;;;5.35;1.50;;;16.20;99.90;;;;;;4968838;28;20052;-87
2022/05/13 10:19:55;;;;;;;6.38;1.80;;;16.20;99.90;;;;;;4980492;28;20507;-88
2022/05/13 10:22:50;;;;;;;5.55;1.70;;;16.10;99.90;;;;;;4980318;28;20389;-88
2022/05/13 10:25:35;;;;;;;6.50;1.80;;;16.50;99.90;;;;;;4980299;28;20053;-88
2022/05/13 10:28:12;;;;;;;3.78;1.80;;;17.10;99.90;;;;;;4980173;28;20050;-86
2022/05/13 10:30:54;;;;;;;5.45;1.80;;;17.10;99.90;;;;;;4980101;28;20069;-88
2022/05/13 10:33:50;;;;;;;5.97;1.75;;;17.00;99.90;;;;;;4980017;28;20082;-88
2022/05/13 10:36:28;;;;;;;6.85;1.85;;;16.70;99.90;;;;;;4905840;29;20056;-87
2022/05/13 10:39:06;;;;;;;6.82;2.05;;;16.70;99.90;;;;;;4921878;29;20095;-87
2022/05/13 10:41:59;;;;;;;6.97;1.67;;;16.90;99.90;;;;;;4906056;29;20427;-87
2022/05/13 10:45:02;;;;;;;6.28;1.98;;;17.10;99.90;;;;;;4906086;29;20093;-88
2022/05/13 10:47:43;;;;;;;7.63;2.03;;;17.20;99.90;;;;;;4921732;29;20064;-87
2022/05/13 10:50:19;;;;;;;5.38;2.10;;;17.10;99.90;;;;;;4905599;29;20055;-87
2022/05/13 10:53:07;;;;;;;10.50;2.80;;;17.30;99.90;;;;;;4905641;29;20500;-87
2022/05/13 10:55:35;;;;;;;7.57;2.38;;;17.70;99.90;;;;;;4922504;29;20040;-87
2022/05/13 10:58:16;;;;;;;9.43;2.38;;;17.80;99.90;;;;;;4921621;29;20391;-87
2022/05/13 11:01:04;;;;;;;9.65;2.17;;;17.50;99.90;;;;;;4905760;29;20240;-87
2022/05/13 11:04:01;;;;;;;5.15;2.28;;;17.20;99.90;;;;;;4921252;29;20051;-87
2022/05/13 11:06:42;;;;;;;8.23;2.30;;;17.40;99.90;;;;;;4921126;29;20416;-86
2022/05/13 11:09:16;;;;;;;8.38;1.83;;;17.70;99.90;;;;;;4920959;29;20050;-87
2022/05/13 11:11:44;;;;;;;5.30;1.95;;;18.20;99.90;;;;;;4921350;29;20432;-88
2022/05/13 11:14:09;;;;;;;8.32;2.75;;;18.40;99.90;;;;;;4973724;28;20410;-87
2022/05/13 11:17:05;;;;;;;6.60;2.00;;;18.40;99.90;;;;;;4979862;28;20039;-88
2022/05/13 11:20:12;;;;;;;6.95;2.00;;;18.30;99.90;;;;;;4979335;28;20390;-87
2022/05/13 11:22:44;;;;;;;5.68;1.70;;;18.40;99.90;;;;;;4942104;28;20553;-87
2022/05/13 11:25:55;;;;;;;4.55;1.83;;;18.00;99.90;;;;;;4979533;28;20050;-87
2022/05/13 11:28:27;;;;;;;5.30;1.50;;;18.10;99.90;;;;;;4979389;28;20042;-86
2022/05/13 11:31:02;;;;;;;6.60;1.70;;;18.60;99.90;;;;;;4963310;28;20042;-87
2022/05/13 11:33:49;;;;;;;6.57;1.98;;;19.00;99.90;;;;;;4963145;28;20379;-87
2022/05/13 11:36:27;;;;;;;3.90;1.50;;;19.30;99.90;;;;;;4979147;28;20046;-87
2022/05/13 11:39:31;;;;;;;5.70;1.73;;;19.20;99.90;;;;;;4979213;28;20088;-86
2022/05/13 11:42:08;;;;;;;6.63;2.05;;;18.90;99.90;;;;;;4920804;29;20059;-86
2022/05/13 11:45:09;;;;;;;5.40;1.60;;;18.70;99.90;;;;;;4920306;29;20047;-87
2022/05/13 11:47:56;;;;;;;6.40;1.55;;;18.80;99.90;;;;;;4879874;29;20061;-88
2022/05/13 11:50:23;;;;;;;5.15;1.40;;;18.80;99.90;;;;;;4864403;29;20067;-87
2022/05/13 11:52:50;;;;;;;3.95;1.60;;;18.70;99.90;;;;;;4864008;29;20065;-85
2022/05/13 11:55:41;;;;;;;6.80;1.92;;;18.40;99.90;;;;;;4864174;29;20131;-87
2022/05/13 11:58:07;;;;;;;5.45;1.50;;;18.50;99.90;;;;;;4863763;29;20089;-87
2022/05/13 12:00:38;;;;;;;5.43;1.60;;;19.10;99.90;;;;;;4848562;29;20104;-86
2022/05/13 12:03:09;;;;;;;4.53;1.52;;;19.20;99.90;;;;;;4864000;29;20417;-88
2022/05/13 12:05:50;;;;;;;8.70;2.00;;;19.10;99.90;;;;;;4863817;29;20120;-87
2022/05/13 12:08:20;;;;;;;5.13;1.85;;;18.90;99.90;;;;;;4864143;29;20056;-88
2022/05/13 12:11:00;;;;;;;6.22;1.75;;;18.60;99.90;;;;;;4863933;29;20442;-87
2022/05/13 12:13:34;;;;;;;6.63;1.80;;;18.40;99.90;;;;;;4863664;29;20148;-88
2022/05/13 12:16:24;;;;;;;5.40;2.03;;;18.40;99.90;;;;;;4864172;29;20045;-86
2022/05/13 12:19:09;;;;;;;6.13;1.80;;;18.30;99.90;;;;;;4893800;29;20119;-88
2022/05/13 12:22:00;;;;;;;5.75;1.63;;;18.10;99.90;;;;;;4920120;29;20055;-87
2022/05/13 12:24:29;;;;;;;5.70;1.52;;;18.30;99.90;;;;;;4959442;28;20109;-87
2022/05/13 12:26:57;;;;;;;6.65;1.45;;;18.60;99.90;;;;;;4975760;28;20058;-88
2022/05/13 12:29:35;;;;;;;5.30;1.60;;;18.60;99.90;;;;;;4958938;28;20038;-87
2022/05/13 12:32:01;;;;;;;9.93;2.17;;;18.70;99.90;;;;;;4960212;28;20058;-87
2022/05/13 12:37:38;;;;;;;5.13;1.65;;;18.70;99.90;;;;;;4974948;28;20406;-87
2022/05/13 12:40:04;;;;;;;6.00;1.40;;;18.70;99.90;;;;;;4974492;28;20050;-87
2022/05/13 12:42:44;;;;;;;5.30;1.50;;;18.40;99.90;;;;;;4974843;28;20055;-88
2022/05/13 12:45:41;;;;;;;7.13;1.73;;;18.60;99.90;;;;;;4958372;28;20047;-88
2022/05/13 12:48:07;;;;;;;6.32;1.60;;;19.00;99.90;;;;;;4974399;28;20042;-88
2022/05/13 12:50:49;;;;;;;5.68;1.80;;;19.10;99.90;;;;;;4974360;28;20053;-88
2022/05/13 12:53:30;;;;;;;5.10;1.70;;;19.30;99.90;;;;;;4974385;28;20490;-87
2022/05/13 12:55:58;;;;;;;5.45;1.73;;;19.10;99.90;;;;;;4975759;28;20094;-88
2022/05/13 12:58:25;;;;;;;8.90;1.80;;;19.10;99.90;;;;;;4959648;28;20058;-88
2022/05/13 13:00:53;;;;;;;4.63;1.80;;;18.90;99.90;;;;;;4974510;28;20446;-89
2022/05/13 13:03:20;;;;;;;5.53;1.65;;;18.70;99.90;;;;;;4957815;28;20061;-88
2022/05/13 13:05:57;;;;;;;5.72;1.70;;;18.60;99.90;;;;;;4958013;28;20054;-88
2022/05/13 13:08:31;;;;;;;9.15;1.55;;;18.90;99.90;;;;;;4974117;28;20442;-88
2022/05/13 13:11:01;;;;;;;6.55;1.85;;;18.90;99.90;;;;;;4974364;28;20050;-88
2022/05/13 13:13:36;;;;;;;5.40;1.60;;;18.80;99.90;;;;;;4957796;28;20050;-87
2022/05/13 13:16:08;;;;;;;7.70;1.60;;;18.60;99.90;;;;;;4958323;28;20570;-87
2022/05/13 13:18:37;;;;;;;8.10;1.75;;;18.40;99.90;;;;;;4974168;28;20125;-88
2022/05/13 13:21:12;;;;;;;8.00;2.00;;;18.10;99.90;;;;;;4957928;28;20047;-88
2022/05/13 13:23:43;;;;;;;10.32;1.90;;;17.90;99.90;;;;;;4957761;28;20105;-88
2022/05/13 13:26:13;;;;;;;7.10;1.52;;;17.70;99.90;;;;;;4973842;28;20054;-88
2022/05/13 13:28:40;;;;;;;5.55;1.85;;;17.50;99.90;;;;;;4973794;28;20047;-89
2022/05/13 13:31:21;;;;;;;7.05;1.70;;;17.50;99.90;;;;;;4957791;28;20043;-87
2022/05/13 13:33:51;;;;;;;6.57;1.42;;;17.40;99.90;;;;;;4957550;28;20050;-88